createdAt,value
2022-10-13T00:11:44.909Z,100988.97
2022-10-13T00:26:46.696Z,100994.78
2022-10-13T00:41:48.490Z,100991.88
2022-10-13T00:56:51.674Z,100995.34
2022-10-13T01:12:20.864Z,100986.72
2022-10-13T01:27:38.272Z,100986.88
2022-10-13T01:42:56.967Z,100978.47
2022-10-13T01:57:58.750Z,100992.66
2022-10-13T02:13:03.875Z,100995.97
2022-10-13T02:28:06.754Z,101004.69
2022-10-13T02:43:08.636Z,101001.28
2022-10-13T02:58:10.393Z,101004.19
2022-10-13T03:13:12.252Z,101005.94
2022-10-13T03:28:14.235Z,101006.88
2022-10-13T03:43:16.042Z,101017.06
2022-10-13T03:58:18.622Z,101023.09
2022-10-13T04:13:20.516Z,101026.94
2022-10-13T04:28:22.352Z,101030.47
2022-10-13T04:43:24.263Z,101046.22
2022-10-13T04:58:26.087Z,101042.22
2022-10-13T05:13:29.915Z,101057.59
2022-10-13T05:28:31.941Z,101060.25
2022-10-13T05:43:34.617Z,101072.16
2022-10-13T05:58:40.983Z,101075.16
2022-10-13T06:13:42.864Z,101081.78
2022-10-13T06:28:49.738Z,101086.22
2022-10-13T06:43:52.407Z,101091.53
2022-10-13T06:58:54.196Z,101084.94
2022-10-13T07:13:56.214Z,101089.81
2022-10-13T07:28:58.237Z,101091.56
2022-10-13T07:44:00.165Z,101097.16
2022-10-13T07:59:02.574Z,101083.31
2022-10-13T08:14:05.171Z,101079.75
2022-10-13T08:29:21.474Z,101082.03
2022-10-13T09:00:01.149Z,101069.38
2022-10-13T09:15:10.307Z,101061.63
2022-10-13T09:30:28.431Z,101072.06
2022-10-13T09:45:32.310Z,101051.59
2022-10-13T10:00:34.992Z,101048.00
2022-10-13T10:16:10.961Z,101044.66
2022-10-13T10:31:54.735Z,101041.97
2022-10-13T10:47:03.048Z,101020.19
2022-10-13T11:02:07.898Z,101014.06
2022-10-13T11:17:17.122Z,101015.97
2022-10-13T11:32:27.781Z,101002.84
2022-10-13T11:48:00.957Z,101016.47
2022-10-13T12:03:02.840Z,101003.63
2022-10-13T12:18:34.567Z,101000.34
2022-10-13T12:33:36.423Z,100997.81
2022-10-13T12:48:40.912Z,100992.28
2022-10-13T13:03:43.913Z,100992.53
2022-10-13T13:18:50.718Z,100989.34
2022-10-13T13:33:53.101Z,100983.38
2022-10-13T13:48:54.905Z,100984.69
2022-10-13T14:03:56.712Z,100975.50
2022-10-13T14:18:58.869Z,100976.63
2022-10-13T14:34:00.652Z,100982.31
2022-10-13T14:49:02.472Z,100991.31
2022-10-13T15:04:05.025Z,101006.06
2022-10-13T15:19:06.856Z,100997.75
2022-10-13T15:34:08.647Z,101002.66
2022-10-13T15:49:10.404Z,101005.28
2022-10-13T16:04:12.135Z,101016.44
2022-10-13T16:19:14.349Z,101025.66
2022-10-13T16:34:16.364Z,101017.81
2022-10-13T16:49:18.394Z,101022.03
2022-10-13T17:04:22.290Z,101022.81
2022-10-13T17:19:24.275Z,101030.22
2022-10-13T17:34:26.056Z,101030.09
2022-10-13T17:49:28.001Z,101032.31
2022-10-13T18:04:30.048Z,101042.78
2022-10-13T18:19:35.388Z,101043.81
2022-10-13T18:34:39.628Z,101042.69
2022-10-13T18:49:41.407Z,101046.81
2022-10-13T19:04:43.196Z,101050.88
2022-10-13T19:19:46.467Z,101054.84
2022-10-13T19:34:48.284Z,101058.91
2022-10-13T19:49:50.022Z,101054.50
2022-10-13T20:04:52.215Z,101056.66
2022-10-13T20:19:54.042Z,101060.34
2022-10-13T20:34:55.775Z,101057.25
2022-10-13T20:49:57.631Z,101042.91
2022-10-13T21:04:59.452Z,101038.16
2022-10-13T21:20:01.402Z,101041.91
2022-10-13T21:35:03.386Z,101033.00
2022-10-13T21:50:05.746Z,101036.66
2022-10-13T22:05:07.888Z,101044.03
2022-10-13T22:20:09.888Z,101041.28
2022-10-13T22:35:11.676Z,101041.06
2022-10-13T22:50:13.504Z,101036.53
2022-10-13T23:05:15.355Z,101037.88
2022-10-13T23:20:17.289Z,101033.38
2022-10-13T23:35:19.143Z,101037.41
2022-10-13T23:50:20.923Z,101039.44
